Time;durP1;ratioP1;P1;durP2;ratioP2;P2;SDS_P1;SDS_P2;PMS_P1;PMS_P2;Temp;Humidity;BMP_temperature;BMP_pressure;BME280_temperature;BME280_humidity;BME280_pressure;Samples;Min_cycle;Max_cycle;Signal;HPM_P1;HPM_P2
2022/07/07 00:02:19;;;;;;;1.50;0.90;;;19.90;86.00;;;;;;5014395;28;20491;-77
2022/07/07 00:04:46;;;;;;;1.47;0.90;;;19.90;86.10;;;;;;5015845;28;20472;-77
2022/07/07 00:07:13;;;;;;;1.47;0.90;;;19.90;86.10;;;;;;5019668;28;20956;-78
2022/07/07 00:09:40;;;;;;;1.50;1.00;;;19.90;86.70;;;;;;5019062;28;21110;-77
2022/07/07 00:12:08;;;;;;;1.50;0.90;;;19.90;86.60;;;;;;5004249;28;20503;-77
2022/07/07 00:14:36;;;;;;;1.43;0.90;;;20.00;86.80;;;;;;5009875;28;20460;-77
2022/07/07 00:17:03;;;;;;;1.47;0.90;;;20.00;86.60;;;;;;5016934;28;20465;-77
2022/07/07 00:19:30;;;;;;;1.47;0.90;;;20.00;86.80;;;;;;5016792;28;20928;-78
2022/07/07 00:21:57;;;;;;;1.47;0.90;;;20.00;86.80;;;;;;5009995;28;20492;-77
2022/07/07 00:24:25;;;;;;;1.50;0.90;;;20.00;86.90;;;;;;5010211;28;20479;-77
2022/07/07 00:26:52;;;;;;;1.43;0.90;;;20.00;86.70;;;;;;5009506;28;20570;-76
2022/07/07 00:29:19;;;;;;;1.50;0.90;;;19.90;86.80;;;;;;5011257;28;20965;-77
2022/07/07 00:31:48;;;;;;;1.43;0.90;;;19.90;87.30;;;;;;5011792;28;20992;-75
2022/07/07 00:34:15;;;;;;;1.50;1.07;;;19.90;87.10;;;;;;5010110;28;20853;-75
2022/07/07 00:36:43;;;;;;;1.43;0.90;;;19.90;87.10;;;;;;5008691;28;20534;-77
2022/07/07 00:39:10;;;;;;;1.47;0.90;;;19.90;86.90;;;;;;5018866;28;20456;-77
2022/07/07 00:41:37;;;;;;;1.43;0.90;;;19.90;87.40;;;;;;5011854;28;20882;-77
2022/07/07 00:44:06;;;;;;;1.43;0.90;;;19.90;87.40;;;;;;5011735;28;20472;-77
2022/07/07 00:46:43;;;;;;;1.47;0.90;;;19.90;88.10;;;;;;5010582;28;20538;-78
2022/07/07 00:49:12;;;;;;;1.40;0.90;;;19.90;88.20;;;;;;5019595;28;20475;-77
2022/07/07 00:51:40;;;;;;;1.43;0.90;;;19.90;88.00;;;;;;5014142;28;20680;-77
2022/07/07 00:54:11;;;;;;;1.43;0.90;;;19.80;88.70;;;;;;5026669;28;20871;-79
2022/07/07 00:56:39;;;;;;;1.47;0.90;;;19.80;88.60;;;;;;5008327;28;20876;-77
2022/07/07 00:59:07;;;;;;;1.40;0.90;;;19.80;88.40;;;;;;5006881;28;20460;-77
2022/07/07 01:01:37;;;;;;;1.40;0.90;;;19.90;88.60;;;;;;5001491;28;20853;-77
2022/07/07 01:04:06;;;;;;;1.43;0.90;;;19.90;89.20;;;;;;5015943;28;20476;-76
2022/07/07 01:06:35;;;;;;;1.47;0.90;;;19.90;89.10;;;;;;5006193;28;20495;-77
2022/07/07 01:09:03;;;;;;;1.50;0.90;;;19.90;89.40;;;;;;5007789;28;20523;-78
2022/07/07 01:11:45;;;;;;;1.50;0.90;;;19.80;90.10;;;;;;5008675;28;20485;-77
2022/07/07 01:14:12;;;;;;;1.40;0.90;;;19.80;90.00;;;;;;5017858;28;20517;-78
2022/07/07 01:16:39;;;;;;;1.50;0.90;;;19.90;90.10;;;;;;5005338;28;20483;-77
2022/07/07 01:19:09;;;;;;;1.40;0.90;;;19.80;90.00;;;;;;5025093;28;20475;-77
2022/07/07 01:21:44;;;;;;;1.43;0.97;;;19.80;90.40;;;;;;5015482;28;20559;-77
2022/07/07 01:24:12;;;;;;;1.47;0.90;;;19.80;90.10;;;;;;5012278;28;20471;-77
2022/07/07 01:26:39;;;;;;;1.43;0.90;;;19.80;90.20;;;;;;5006728;28;20864;-77
2022/07/07 01:29:06;;;;;;;1.43;0.90;;;19.80;90.30;;;;;;5017032;28;20491;-77
2022/07/07 01:31:34;;;;;;;1.47;0.90;;;19.80;90.30;;;;;;5002288;28;20486;-76
2022/07/07 01:34:00;;;;;;;1.70;1.23;;;19.80;90.30;;;;;;5012296;28;21019;-76
2022/07/07 01:36:27;;;;;;;1.43;0.90;;;19.80;89.50;;;;;;5006685;28;20553;-77
2022/07/07 01:38:54;;;;;;;1.47;0.90;;;19.80;90.40;;;;;;5011204;28;20502;-76
2022/07/07 01:41:22;;;;;;;1.47;0.90;;;19.80;90.30;;;;;;5010067;28;20467;-77
2022/07/07 01:43:50;;;;;;;1.43;0.90;;;19.80;90.60;;;;;;5021946;28;20483;-77
2022/07/07 01:46:17;;;;;;;1.40;0.90;;;19.70;90.70;;;;;;5008500;28;20479;-77
2022/07/07 01:48:44;;;;;;;1.50;0.90;;;19.70;90.30;;;;;;5037096;28;20527;-77
2022/07/07 01:51:11;;;;;;;1.47;0.90;;;19.70;90.90;;;;;;5012699;28;20480;-77
2022/07/07 01:53:38;;;;;;;1.47;0.90;;;19.70;90.70;;;;;;5015749;28;20916;-77
2022/07/07 01:56:05;;;;;;;1.47;0.90;;;19.70;90.60;;;;;;5005336;28;20476;-77
2022/07/07 01:58:34;;;;;;;1.40;0.90;;;19.70;90.80;;;;;;5024735;28;20464;-77
2022/07/07 02:01:01;;;;;;;1.43;0.90;;;19.70;91.10;;;;;;5012233;28;20495;-77
2022/07/07 02:03:28;;;;;;;1.47;0.90;;;19.70;90.80;;;;;;5011125;28;20487;-77
2022/07/07 02:05:55;;;;;;;1.40;0.90;;;19.70;91.20;;;;;;5003648;28;20468;-77
2022/07/07 02:08:23;;;;;;;1.40;0.90;;;19.70;91.50;;;;;;5026647;28;20555;-76
2022/07/07 02:13:36;;;;;;;1.47;0.90;;;19.60;92.00;;;;;;5005924;28;20474;-77
2022/07/07 02:16:04;;;;;;;1.43;0.90;;;19.60;93.00;;;;;;5004625;28;20834;-76
2022/07/07 02:18:35;;;;;;;1.47;0.90;;;19.60;93.00;;;;;;5024714;28;20464;-77
2022/07/07 02:21:02;;;;;;;1.47;0.90;;;19.60;92.90;;;;;;5014982;28;20967;-76
2022/07/07 02:23:32;;;;;;;1.43;0.90;;;19.60;93.10;;;;;;5023046;28;20486;-76
2022/07/07 02:25:59;;;;;;;1.43;0.90;;;19.60;94.10;;;;;;5003024;28;20490;-76
2022/07/07 02:28:27;;;;;;;1.40;0.90;;;19.60;93.80;;;;;;5015767;28;20469;-77
2022/07/07 02:30:55;;;;;;;1.43;0.90;;;19.60;94.50;;;;;;5011824;28;20472;-77
2022/07/07 02:33:22;;;;;;;1.47;0.90;;;19.60;94.30;;;;;;5011896;28;21066;-76
2022/07/07 02:35:50;;;;;;;1.50;1.20;;;19.50;94.70;;;;;;5002265;28;20533;-77
2022/07/07 02:38:18;;;;;;;1.40;0.90;;;19.60;94.60;;;;;;5026538;28;20503;-77
2022/07/07 02:40:45;;;;;;;1.47;0.90;;;19.60;94.70;;;;;;5011151;28;20971;-76
2022/07/07 02:43:12;;;;;;;1.50;1.10;;;19.60;94.90;;;;;;5015011;28;20565;-76
2022/07/07 02:45:40;;;;;;;1.50;0.90;;;19.60;94.80;;;;;;5011586;28;20646;-77
2022/07/07 02:48:08;;;;;;;1.47;0.90;;;19.60;94.90;;;;;;5012694;28;20475;-77
2022/07/07 02:50:35;;;;;;;1.50;0.90;;;19.60;94.60;;;;;;5010872;28;20484;-78
2022/07/07 02:53:03;;;;;;;1.50;1.00;;;19.60;94.80;;;;;;5010265;28;20974;-78
2022/07/07 02:55:31;;;;;;;1.47;0.90;;;19.60;95.10;;;;;;5011960;28;20522;-78
2022/07/07 02:57:58;;;;;;;1.43;0.90;;;19.50;95.10;;;;;;5013149;28;20694;-77
2022/07/07 03:00:26;;;;;;;1.40;0.90;;;19.60;95.20;;;;;;5011782;28;20457;-76
2022/07/07 03:02:53;;;;;;;1.43;0.90;;;19.50;95.20;;;;;;5015327;28;21050;-76
2022/07/07 03:05:23;;;;;;;1.50;1.00;;;19.50;94.90;;;;;;5011207;28;20474;-76
2022/07/07 03:07:50;;;;;;;1.47;0.90;;;19.60;95.00;;;;;;5017096;28;20519;-77
2022/07/07 03:10:17;;;;;;;1.43;0.90;;;19.60;95.10;;;;;;5011147;28;20500;-76
2022/07/07 03:12:44;;;;;;;1.47;0.90;;;19.60;94.90;;;;;;5015389;28;20491;-76
2022/07/07 03:15:12;;;;;;;1.47;0.90;;;19.60;95.10;;;;;;5010791;28;20817;-76
2022/07/07 03:17:42;;;;;;;1.43;0.90;;;19.60;95.00;;;;;;5011705;28;20845;-76
2022/07/07 03:20:11;;;;;;;1.47;0.90;;;19.60;95.40;;;;;;5008348;28;20484;-76
2022/07/07 03:22:40;;;;;;;1.47;0.90;;;19.60;95.40;;;;;;5021642;28;20506;-76
2022/07/07 03:25:08;;;;;;;1.50;0.90;;;19.60;95.70;;;;;;5019680;28;20464;-76
2022/07/07 03:27:36;;;;;;;1.47;0.90;;;19.50;96.00;;;;;;5011481;28;20472;-76
2022/07/07 03:30:04;;;;;;;1.43;0.90;;;19.50;95.90;;;;;;5010624;28;20725;-76
2022/07/07 03:32:30;;;;;;;1.43;0.90;;;19.50;95.80;;;;;;5006093;28;20496;-76
2022/07/07 03:34:57;;;;;;;1.47;0.90;;;19.50;95.90;;;;;;5009666;28;20563;-76
2022/07/07 03:37:25;;;;;;;1.43;0.90;;;19.50;96.20;;;;;;5012866;28;20491;-78
2022/07/07 03:39:53;;;;;;;1.47;0.90;;;19.50;95.80;;;;;;5020624;28;20483;-77
2022/07/07 03:42:21;;;;;;;1.50;1.00;;;19.50;96.10;;;;;;5016575;28;20508;-78
2022/07/07 03:44:48;;;;;;;1.47;0.90;;;19.50;96.40;;;;;;5015273;28;20465;-77
2022/07/07 03:47:15;;;;;;;1.43;0.90;;;19.50;96.00;;;;;;5007049;28;20468;-77
2022/07/07 03:49:42;;;;;;;1.47;0.90;;;19.50;96.10;;;;;;5009543;28;20520;-76
2022/07/07 03:52:09;;;;;;;1.47;0.90;;;19.50;96.40;;;;;;5021633;28;20480;-77
2022/07/07 03:54:36;;;;;;;1.50;0.90;;;19.50;98.00;;;;;;5013549;28;20460;-77
2022/07/07 03:57:06;;;;;;;1.50;0.90;;;19.40;98.20;;;;;;5012570;28;20491;-77
2022/07/07 03:59:33;;;;;;;1.43;0.90;;;19.40;98.20;;;;;;5018069;28;20472;-77
2022/07/07 04:02:00;;;;;;;1.43;0.90;;;19.40;98.20;;;;;;5016654;28;20522;-77
2022/07/07 04:04:27;;;;;;;1.47;0.90;;;19.30;98.20;;;;;;5017981;28;20828;-77
2022/07/07 04:06:54;;;;;;;1.43;0.90;;;19.30;98.20;;;;;;5010614;28;20962;-77
2022/07/07 04:09:21;;;;;;;1.43;0.90;;;19.20;98.20;;;;;;5015082;28;20515;-77
2022/07/07 04:11:48;;;;;;;1.50;0.90;;;19.10;98.20;;;;;;5014220;28;20546;-77
2022/07/07 04:14:16;;;;;;;1.40;0.90;;;19.10;98.20;;;;;;5014850;28;20476;-77
2022/07/07 04:16:43;;;;;;;1.47;0.90;;;19.10;98.20;;;;;;5009471;28;21002;-77
2022/07/07 04:19:10;;;;;;;1.47;0.90;;;19.10;98.20;;;;;;5020289;28;20464;-77
2022/07/07 04:21:38;;;;;;;1.47;0.90;;;19.10;98.20;;;;;;5011904;28;20472;-78
2022/07/07 04:24:06;;;;;;;1.50;1.00;;;19.20;98.20;;;;;;5017611;28;20464;-77
2022/07/07 04:26:33;;;;;;;1.43;0.90;;;19.20;98.20;;;;;;5009295;28;20492;-77
2022/07/07 04:29:00;;;;;;;1.47;0.90;;;19.20;98.20;;;;;;5011174;28;20999;-76
2022/07/07 04:31:29;;;;;;;1.40;0.90;;;19.20;98.20;;;;;;5012929;28;20894;-76
2022/07/07 04:33:56;;;;;;;1.43;0.90;;;19.20;98.20;;;;;;5011330;28;20467;-77
2022/07/07 04:36:23;;;;;;;1.47;0.90;;;19.20;98.20;;;;;;5012094;28;20475;-77
2022/07/07 04:38:50;;;;;;;1.43;0.90;;;19.20;98.20;;;;;;5012881;28;20468;-78
2022/07/07 04:41:17;;;;;;;1.40;0.90;;;19.10;98.20;;;;;;5007233;28;21102;-77
2022/07/07 04:43:44;;;;;;;1.50;0.90;;;19.10;98.20;;;;;;5023658;28;20558;-77
2022/07/07 04:46:11;;;;;;;1.50;0.90;;;19.20;98.20;;;;;;5014558;28;21118;-77
2022/07/07 04:48:39;;;;;;;1.47;0.97;;;19.20;98.20;;;;;;5016366;28;20475;-78
2022/07/07 04:51:07;;;;;;;1.43;0.90;;;19.20;98.20;;;;;;5018441;28;20488;-77
2022/07/07 04:53:34;;;;;;;1.47;0.90;;;19.20;98.20;;;;;;5018901;28;20530;-77
2022/07/07 04:56:01;;;;;;;1.50;0.90;;;19.20;98.20;;;;;;4997553;28;20456;-78
2022/07/07 04:58:28;;;;;;;1.47;0.90;;;19.20;98.20;;;;;;5024879;28;20522;-77
2022/07/07 05:00:55;;;;;;;1.50;1.00;;;19.20;98.20;;;;;;5011758;28;20817;-78
2022/07/07 05:03:22;;;;;;;1.60;1.00;;;19.20;98.20;;;;;;5011553;28;20537;-77
2022/07/07 05:05:51;;;;;;;1.40;0.90;;;19.20;98.20;;;;;;5000894;28;20887;-78
2022/07/07 05:08:18;;;;;;;1.43;0.90;;;19.20;98.20;;;;;;5029361;28;20523;-78
2022/07/07 05:10:47;;;;;;;1.47;0.90;;;19.20;98.20;;;;;;5014034;28;20965;-77
2022/07/07 05:13:14;;;;;;;1.47;0.90;;;19.20;98.20;;;;;;5034547;28;20909;-78
2022/07/07 05:15:41;;;;;;;1.40;0.90;;;19.20;98.20;;;;;;5016966;28;20481;-78
2022/07/07 05:18:09;;;;;;;1.43;0.90;;;19.20;98.20;;;;;;5017240;28;20793;-79
2022/07/07 05:20:37;;;;;;;1.43;0.90;;;19.20;98.20;;;;;;5022392;28;20485;-81
2022/07/07 05:23:28;;;;;;;1.43;0.90;;;19.20;98.20;;;;;;5024733;28;20516;-79
2022/07/07 05:25:56;;;;;;;1.47;0.90;;;19.10;98.20;;;;;;5007757;28;20469;-77
2022/07/07 05:28:23;;;;;;;1.50;0.90;;;19.10;98.20;;;;;;5042503;23;20638;-78
2022/07/07 05:30:50;;;;;;;1.43;0.90;;;19.10;98.20;;;;;;5014195;28;20486;-80
2022/07/07 05:33:17;;;;;;;1.47;0.90;;;19.10;98.20;;;;;;5031956;28;20464;-76
2022/07/07 05:35:44;;;;;;;1.40;0.90;;;19.10;98.20;;;;;;5011186;28;20619;-76
2022/07/07 05:38:11;;;;;;;1.40;0.90;;;19.10;98.20;;;;;;4996578;28;20519;-77
2022/07/07 05:40:40;;;;;;;1.50;0.90;;;19.10;98.20;;;;;;5008028;28;20455;-78
2022/07/07 05:43:08;;;;;;;1.47;0.90;;;19.00;98.20;;;;;;5014889;28;20840;-77
2022/07/07 05:45:34;;;;;;;1.50;0.90;;;19.00;98.20;;;;;;5007803;28;20472;-77
2022/07/07 05:48:01;;;;;;;1.47;0.90;;;18.90;98.20;;;;;;5016156;28;20484;-77
2022/07/07 05:50:28;;;;;;;1.50;0.90;;;18.80;98.20;;;;;;5012846;28;20486;-77
2022/07/07 05:52:55;;;;;;;1.40;0.90;;;18.70;98.20;;;;;;5017776;28;20505;-76
2022/07/07 05:55:22;;;;;;;1.47;0.90;;;18.60;98.20;;;;;;5007584;28;20491;-75
2022/07/07 05:57:51;;;;;;;1.47;0.90;;;18.60;98.20;;;;;;5013496;28;20506;-76
2022/07/07 06:00:18;;;;;;;1.50;0.90;;;18.40;98.20;;;;;;5010217;28;20468;-76
2022/07/07 06:02:45;;;;;;;1.40;0.90;;;18.40;98.20;;;;;;5013467;28;20659;-76
2022/07/07 06:05:13;;;;;;;1.40;0.90;;;18.30;98.20;;;;;;5012840;28;20479;-76
2022/07/07 06:07:41;;;;;;;1.43;0.90;;;18.30;98.20;;;;;;5016977;28;20491;-77
2022/07/07 06:10:10;;;;;;;1.43;0.90;;;18.30;98.20;;;;;;5014177;28;20636;-77
2022/07/07 06:12:37;;;;;;;1.47;0.90;;;18.30;98.20;;;;;;5020061;28;20464;-78
2022/07/07 06:15:07;;;;;;;1.40;0.90;;;18.40;98.20;;;;;;5014281;28;20468;-76
2022/07/07 06:17:34;;;;;;;1.50;0.90;;;18.50;98.20;;;;;;5003880;28;20517;-76
2022/07/07 06:20:01;;;;;;;1.47;0.90;;;18.50;98.20;;;;;;5011846;28;21015;-76
2022/07/07 06:22:29;;;;;;;1.70;1.00;;;18.60;98.20;;;;;;5021330;28;20475;-77
2022/07/07 06:24:56;;;;;;;1.47;0.90;;;18.70;98.20;;;;;;5018904;28;20471;-76
2022/07/07 06:27:23;;;;;;;1.47;0.90;;;18.80;98.20;;;;;;5015993;28;20506;-78
2022/07/07 06:29:50;;;;;;;1.47;0.90;;;18.90;98.20;;;;;;5015881;28;20467;-77
2022/07/07 06:32:19;;;;;;;1.43;0.90;;;18.90;98.20;;;;;;5013392;28;20464;-76
2022/07/07 06:34:46;;;;;;;1.40;0.90;;;18.90;98.20;;;;;;5011355;28;20471;-76
2022/07/07 06:37:13;;;;;;;1.40;0.90;;;18.90;98.20;;;;;;5013920;28;21061;-77
2022/07/07 06:39:44;;;;;;;1.43;0.87;;;18.80;98.20;;;;;;5017646;28;20546;-76
2022/07/07 06:42:11;;;;;;;1.43;0.90;;;18.80;98.20;;;;;;5014587;28;20464;-76
2022/07/07 06:44:38;;;;;;;1.47;0.90;;;18.70;98.20;;;;;;5015291;28;21126;-76
2022/07/07 06:47:06;;;;;;;1.47;0.90;;;18.60;98.20;;;;;;5015870;28;20490;-76
2022/07/07 06:49:34;;;;;;;1.50;0.90;;;18.60;98.20;;;;;;5022373;28;20526;-78
2022/07/07 06:52:01;;;;;;;1.47;0.90;;;18.60;98.20;;;;;;5021569;28;20520;-77
2022/07/07 06:54:28;;;;;;;1.40;0.90;;;18.50;98.20;;;;;;5018410;28;20452;-77
2022/07/07 06:56:55;;;;;;;1.47;0.90;;;18.50;98.20;;;;;;5010678;28;20513;-77
2022/07/07 06:59:23;;;;;;;1.50;0.90;;;18.50;98.20;;;;;;5018922;28;20456;-77
2022/07/07 07:01:50;;;;;;;1.43;0.90;;;18.40;98.20;;;;;;5016504;28;20491;-75
2022/07/07 07:04:17;;;;;;;1.47;0.90;;;18.30;98.20;;;;;;5016162;28;20476;-78
2022/07/07 07:06:46;;;;;;;1.40;0.90;;;18.20;98.20;;;;;;5018149;28;20554;-80
2022/07/07 07:09:14;;;;;;;1.47;0.90;;;18.30;98.20;;;;;;5018747;28;20556;-81
2022/07/07 07:11:44;;;;;;;1.50;1.00;;;18.40;98.20;;;;;;5015207;28;20514;-82
2022/07/07 07:14:17;;;;;;;1.47;0.90;;;18.60;98.20;;;;;;5026650;28;20547;-82
2022/07/07 07:16:44;;;;;;;1.43;0.90;;;18.80;98.20;;;;;;5026333;28;20571;-81
2022/07/07 07:19:16;;;;;;;1.50;0.90;;;19.00;98.20;;;;;;5030328;28;20532;-82
2022/07/07 07:25:26;;;;;;;1.47;0.90;;;19.40;98.20;;;;;;4958378;28;20478;-81
2022/07/07 07:27:54;;;;;;;1.50;0.90;;;19.60;98.20;;;;;;5026801;28;20498;-83
2022/07/07 07:30:31;;;;;;;1.47;0.90;;;19.90;98.20;;;;;;5019080;28;20480;-81
2022/07/07 07:33:13;;;;;;;1.47;0.90;;;20.00;98.20;;;;;;4985786;28;20865;-82
2022/07/07 07:39:34;;;;;;;1.50;1.00;;;20.20;98.20;;;;;;5013035;28;20543;-84
2022/07/07 07:42:06;;;;;;;1.50;0.90;;;20.30;98.20;;;;;;5015123;28;20562;-82
2022/07/07 07:47:18;;;;;;;1.50;0.90;;;19.90;98.20;;;;;;5018381;28;20486;-79
2022/07/07 07:49:46;;;;;;;1.50;0.90;;;19.80;98.20;;;;;;5017105;28;20452;-79
2022/07/07 07:52:13;;;;;;;1.50;0.90;;;19.50;98.20;;;;;;5009435;28;20483;-79
2022/07/07 07:54:40;;;;;;;1.50;0.90;;;19.40;98.20;;;;;;5019057;28;20952;-80
2022/07/07 07:57:24;;;;;;;1.43;0.90;;;19.40;98.20;;;;;;5015955;28;20503;-80
2022/07/07 07:59:54;;;;;;;1.50;0.90;;;19.30;98.20;;;;;;5012586;28;20522;-80
2022/07/07 08:02:31;;;;;;;1.43;0.90;;;19.40;98.20;;;;;;5015334;28;20531;-81
2022/07/07 08:05:10;;;;;;;1.47;0.90;;;19.50;98.20;;;;;;5017535;28;20468;-81
2022/07/07 08:07:50;;;;;;;1.43;0.90;;;19.60;98.20;;;;;;5009989;28;20491;-81
2022/07/07 08:10:23;;;;;;;1.50;0.90;;;19.80;98.20;;;;;;5014543;28;20611;-81
2022/07/07 08:12:58;;;;;;;1.50;0.90;;;20.10;98.20;;;;;;5011204;28;20483;-80
2022/07/07 08:15:38;;;;;;;1.50;0.90;;;20.30;98.20;;;;;;5011205;28;20571;-82
2022/07/07 08:18:36;;;;;;;1.50;0.90;;;20.40;98.20;;;;;;5020898;28;20537;-82
2022/07/07 08:21:16;;;;;;;1.50;0.90;;;20.50;98.20;;;;;;5022663;28;20630;-81
2022/07/07 08:23:43;;;;;;;1.47;0.90;;;20.50;98.20;;;;;;5024808;28;20527;-80
2022/07/07 08:26:12;;;;;;;1.47;0.90;;;20.60;98.20;;;;;;5017209;28;20525;-80
2022/07/07 08:28:51;;;;;;;1.50;0.90;;;20.80;98.20;;;;;;5020535;28;21038;-81
2022/07/07 08:31:19;;;;;;;1.50;0.90;;;20.70;98.20;;;;;;5007868;28;20497;-81
2022/07/07 08:33:48;;;;;;;1.50;0.90;;;20.90;98.20;;;;;;5025611;28;20511;-82
2022/07/07 08:36:15;;;;;;;1.47;0.90;;;21.00;98.20;;;;;;5016229;28;20463;-81
2022/07/07 08:38:58;;;;;;;1.50;0.90;;;21.20;96.70;;;;;;5017734;28;20511;-81
2022/07/07 08:41:26;;;;;;;1.50;0.90;;;21.00;96.40;;;;;;5007192;28;20498;-78
2022/07/07 08:43:56;;;;;;;1.47;0.90;;;21.10;97.30;;;;;;5015729;28;20468;-77
2022/07/07 08:46:24;;;;;;;1.50;0.90;;;21.10;98.20;;;;;;5014926;28;20466;-78
2022/07/07 08:48:54;;;;;;;1.50;0.90;;;20.90;98.20;;;;;;5011285;28;20511;-77
2022/07/07 08:51:22;;;;;;;1.47;0.90;;;20.60;98.20;;;;;;5010437;28;20479;-79
2022/07/07 08:53:49;;;;;;;1.50;0.90;;;20.40;98.20;;;;;;5019214;28;20891;-80
2022/07/07 08:56:17;;;;;;;1.50;0.90;;;20.40;98.20;;;;;;5005821;28;20982;-82
2022/07/07 08:58:46;;;;;;;1.50;0.90;;;20.30;98.20;;;;;;5012198;28;20472;-82
2022/07/07 09:01:15;;;;;;;1.50;0.90;;;20.20;98.20;;;;;;5019380;28;20468;-83
2022/07/07 09:03:42;;;;;;;1.47;0.90;;;20.50;98.20;;;;;;5015659;28;20452;-82
2022/07/07 09:06:10;;;;;;;1.47;0.90;;;20.60;98.20;;;;;;5012935;28;20500;-81
2022/07/07 09:08:37;;;;;;;1.50;0.90;;;20.70;98.20;;;;;;5015599;28;20967;-82
2022/07/07 09:11:27;;;;;;;1.50;0.90;;;20.80;98.20;;;;;;5010931;28;20475;-83
2022/07/07 09:14:09;;;;;;;1.43;0.80;;;20.90;98.20;;;;;;5024947;28;20504;-82
2022/07/07 09:16:42;;;;;;;1.47;0.90;;;21.10;98.20;;;;;;5020274;28;21043;-79
2022/07/07 09:19:22;;;;;;;1.50;0.90;;;21.30;98.00;;;;;;5009293;28;20475;-82
2022/07/07 09:22:07;;;;;;;;;;;;;;;;;;;;;
2022/07/07 09:24:56;;;;;;;1.47;0.90;;;21.70;94.70;;;;;;5026390;28;20460;-80
2022/07/07 09:27:24;;;;;;;1.50;0.90;;;21.50;94.00;;;;;;5006892;28;20480;-79
2022/07/07 09:29:51;;;;;;;1.43;0.90;;;21.20;94.20;;;;;;5010918;28;20464;-78
2022/07/07 09:32:19;;;;;;;1.47;0.90;;;20.90;96.60;;;;;;5012426;28;20480;-79
2022/07/07 09:34:48;;;;;;;1.40;0.90;;;20.70;96.80;;;;;;5013839;28;20538;-78
2022/07/07 09:40:19;;;;;;;1.50;0.90;;;20.80;97.60;;;;;;5012650;28;20452;-80
2022/07/07 09:42:46;;;;;;;1.50;0.90;;;21.00;97.10;;;;;;5018162;28;20852;-78
2022/07/07 09:45:14;;;;;;;1.50;0.90;;;21.40;95.20;;;;;;5012447;28;20470;-78
2022/07/07 09:47:45;;;;;;;1.40;0.90;;;21.60;95.60;;;;;;5015191;28;20546;-79
2022/07/07 09:50:14;;;;;;;1.50;0.80;;;21.80;94.50;;;;;;5010847;28;20473;-77
2022/07/07 09:52:45;;;;;;;1.47;0.90;;;21.60;94.40;;;;;;5016241;28;20488;-78
2022/07/07 09:55:14;;;;;;;1.50;0.80;;;21.20;94.60;;;;;;5004482;28;20463;-78
2022/07/07 09:57:42;;;;;;;1.47;0.90;;;20.90;94.70;;;;;;4998272;28;20523;-78
2022/07/07 10:00:12;;;;;;;1.43;0.90;;;20.70;95.50;;;;;;5010511;28;20468;-78
2022/07/07 10:02:54;;;;;;;1.50;0.90;;;20.60;94.30;;;;;;5015015;28;20491;-78
2022/07/07 10:05:25;;;;;;;1.43;0.90;;;20.70;95.70;;;;;;5016830;28;20464;-78
2022/07/07 10:07:55;;;;;;;1.50;0.90;;;21.10;94.80;;;;;;5017171;28;20490;-79
2022/07/07 10:10:23;;;;;;;1.47;0.90;;;21.40;93.40;;;;;;5016266;28;20742;-79
2022/07/07 10:12:53;;;;;;;1.47;0.90;;;21.70;91.70;;;;;;5024463;28;20898;-79
2022/07/07 10:15:25;;;;;;;1.43;0.90;;;21.90;92.20;;;;;;5016793;28;20459;-78
2022/07/07 10:17:54;;;;;;;1.43;0.90;;;21.90;92.00;;;;;;5020258;28;20517;-76
2022/07/07 10:20:22;;;;;;;1.43;0.90;;;22.20;92.80;;;;;;5010795;28;20473;-78
2022/07/07 10:22:58;;;;;;;1.43;0.80;;;22.40;91.00;;;;;;5018310;28;20486;-78
2022/07/07 10:25:29;;;;;;;1.50;0.90;;;22.40;90.20;;;;;;5025174;28;20625;-80
2022/07/07 10:28:10;;;;;;;1.47;0.87;;;22.50;88.40;;;;;;5004048;28;20510;-79
2022/07/07 10:30:43;;;;;;;1.50;0.87;;;22.40;88.80;;;;;;5012292;28;20475;-81
2022/07/07 10:33:12;;;;;;;1.47;0.90;;;22.20;90.00;;;;;;5017054;28;20790;-79
2022/07/07 10:35:45;;;;;;;1.47;0.90;;;22.00;90.40;;;;;;5015713;28;21032;-79
2022/07/07 10:38:27;;;;;;;1.50;0.90;;;21.90;88.80;;;;;;5003403;28;20472;-79
2022/07/07 10:41:25;;;;;;;1.47;0.90;;;21.50;90.40;;;;;;5016940;28;20453;-80
2022/07/07 10:44:07;;;;;;;1.47;0.90;;;21.30;90.60;;;;;;5012636;28;20579;-80
2022/07/07 10:46:36;;;;;;;1.43;0.90;;;21.20;91.80;;;;;;5010655;28;20890;-78
2022/07/07 10:49:10;;;;;;;1.40;0.83;;;21.50;92.30;;;;;;5023608;28;20474;-79
2022/07/07 10:51:59;;;;;;;1.43;0.90;;;21.80;91.70;;;;;;5014802;28;20487;-79
2022/07/07 10:54:43;;;;;;;1.43;0.87;;;22.00;90.40;;;;;;5018247;28;20471;-79
2022/07/07 10:57:15;;;;;;;1.50;0.87;;;22.20;90.10;;;;;;5016672;28;20561;-80
2022/07/07 11:00:20;;;;;;;1.47;0.90;;;22.40;90.00;;;;;;5018020;28;20453;-80
2022/07/07 11:02:52;;;;;;;1.47;0.90;;;22.50;88.30;;;;;;4979239;28;20460;-80
2022/07/07 11:05:34;;;;;;;1.43;0.90;;;22.40;88.80;;;;;;5017146;28;20568;-81
2022/07/07 11:08:20;;;;;;;1.47;0.90;;;21.90;89.60;;;;;;5019863;28;20568;-80
2022/07/07 11:13:46;;;;;;;1.47;0.80;;;21.10;92.70;;;;;;5006479;28;20464;-80
2022/07/07 11:16:21;;;;;;;1.43;0.90;;;20.80;93.80;;;;;;5009767;28;20491;-80
2022/07/07 11:18:57;;;;;;;1.50;1.00;;;20.70;94.40;;;;;;5020508;28;20521;-79
2022/07/07 11:21:41;;;;;;;1.50;0.90;;;20.70;95.00;;;;;;5016769;28;20877;-80
2022/07/07 11:24:27;;;;;;;1.47;0.90;;;20.70;94.30;;;;;;5016825;28;20471;-80
2022/07/07 11:29:48;;;;;;;1.50;0.90;;;21.10;93.70;;;;;;5015557;28;20507;-80
2022/07/07 11:32:18;;;;;;;1.50;0.87;;;21.60;92.10;;;;;;5021847;28;20514;-81
2022/07/07 11:34:49;;;;;;;1.47;0.90;;;21.90;91.20;;;;;;5020518;28;20468;-80
2022/07/07 11:37:48;;;;;;;1.47;0.90;;;22.00;90.00;;;;;;5013023;28;20496;-80
2022/07/07 11:40:24;;;;;;;1.50;0.90;;;22.00;89.80;;;;;;5011282;28;20472;-79
2022/07/07 11:43:29;;;;;;;1.50;0.90;;;22.00;90.40;;;;;;5013634;28;20510;-80
2022/07/07 11:45:57;;;;;;;1.43;0.90;;;21.90;90.60;;;;;;5016584;28;20563;-79
2022/07/07 11:48:37;;;;;;;1.47;0.87;;;21.80;91.40;;;;;;5021846;28;20488;-78
2022/07/07 11:51:20;;;;;;;1.47;0.83;;;21.40;91.90;;;;;;5006028;28;20467;-79
2022/07/07 11:54:04;;;;;;;1.47;0.90;;;21.10;92.20;;;;;;5028047;28;21013;-79
2022/07/07 11:56:43;;;;;;;1.43;0.90;;;20.70;93.40;;;;;;5001128;28;20486;-80
2022/07/07 11:59:13;;;;;;;1.50;0.90;;;20.40;94.30;;;;;;5013220;28;20456;-79
2022/07/07 12:01:54;;;;;;;1.47;0.90;;;20.30;95.00;;;;;;5013866;28;20508;-79
2022/07/07 12:04:22;;;;;;;1.47;0.90;;;20.30;95.50;;;;;;5015901;28;20822;-79
2022/07/07 12:06:55;;;;;;;1.50;0.90;;;20.40;95.40;;;;;;5013464;28;20548;-79
2022/07/07 12:12:25;;;;;;;1.50;0.90;;;20.70;93.60;;;;;;5006739;28;20495;-79
2022/07/07 12:15:09;;;;;;;1.50;0.90;;;21.00;93.20;;;;;;5016302;28;20476;-80
2022/07/07 12:17:38;;;;;;;1.43;0.90;;;21.50;93.40;;;;;;5009057;28;20501;-80
2022/07/07 12:26:27;;;;;;;1.47;0.80;;;22.00;90.00;;;;;;5018180;28;20464;-81
2022/07/07 12:29:00;;;;;;;1.50;0.90;;;22.20;89.70;;;;;;5013748;28;20857;-80
2022/07/07 12:31:34;;;;;;;1.50;0.90;;;22.40;88.60;;;;;;5004864;28;20575;-80
2022/07/07 12:34:13;;;;;;;1.43;0.90;;;22.60;88.00;;;;;;5009419;28;20475;-80
2022/07/07 12:36:41;;;;;;;1.47;0.90;;;22.60;87.30;;;;;;5009529;28;20490;-79
2022/07/07 12:39:14;;;;;;;1.50;0.90;;;22.30;88.10;;;;;;5022124;28;20464;-81
2022/07/07 12:41:55;;;;;;;1.40;0.90;;;22.10;89.30;;;;;;5015328;28;20576;-78
2022/07/07 12:44:26;;;;;;;1.50;0.90;;;22.00;90.10;;;;;;5012221;28;20467;-79
2022/07/07 12:47:01;;;;;;;1.47;0.90;;;21.90;90.10;;;;;;5010183;28;20522;-80
2022/07/07 12:49:36;;;;;;;1.47;0.90;;;21.80;90.50;;;;;;5016607;28;20475;-79
2022/07/07 12:52:17;;;;;;;1.47;0.90;;;21.60;91.20;;;;;;5015585;28;20478;-79
2022/07/07 12:54:44;;;;;;;1.47;0.87;;;21.50;93.60;;;;;;5015726;28;20559;-79
2022/07/07 12:57:22;;;;;;;1.43;0.90;;;21.50;94.30;;;;;;5019019;28;20908;-80
2022/07/07 12:59:52;;;;;;;1.47;0.90;;;21.60;93.30;;;;;;5010838;28;20491;-80
2022/07/07 13:02:22;;;;;;;1.47;0.90;;;21.70;92.60;;;;;;5003788;28;20519;-81
2022/07/07 13:04:49;;;;;;;1.43;0.90;;;21.70;92.50;;;;;;5006767;28;20456;-80
2022/07/07 13:07:22;;;;;;;1.43;0.87;;;21.70;92.50;;;;;;5004120;28;20496;-80
2022/07/07 13:09:50;;;;;;;1.50;1.00;;;21.70;92.90;;;;;;5024048;28;20483;-80
2022/07/07 13:12:19;;;;;;;1.47;0.90;;;21.60;93.20;;;;;;5024488;28;20472;-79
2022/07/07 13:14:46;;;;;;;1.50;0.87;;;21.80;93.20;;;;;;5017360;28;20472;-80
2022/07/07 13:17:13;;;;;;;1.43;0.83;;;21.90;92.50;;;;;;5021517;28;20515;-80
2022/07/07 13:19:51;;;;;;;1.47;0.90;;;21.90;92.10;;;;;;5015154;28;20464;-80
2022/07/07 13:22:38;;;;;;;;;;;;;;;;;;;;;
2022/07/07 13:25:07;;;;;;;1.47;0.90;;;21.80;92.10;;;;;;5012746;28;20463;-81
2022/07/07 13:27:36;;;;;;;1.60;1.17;;;21.80;91.60;;;;;;5015975;28;20514;-80
2022/07/07 13:30:05;;;;;;;1.50;0.80;;;21.80;91.40;;;;;;5014174;28;20984;-79
2022/07/07 13:32:34;;;;;;;1.47;0.90;;;21.80;91.40;;;;;;5018460;28;20501;-80
2022/07/07 13:35:03;;;;;;;1.50;0.90;;;21.80;91.60;;;;;;5019123;28;20832;-80
2022/07/07 13:37:30;;;;;;;1.40;0.80;;;21.80;91.30;;;;;;5019277;28;20511;-79